DIAP/ABJ METAR and TAF weather

Enter ICAO airport designator
Station Type Date Time Source
DIAP METAR 2021/09/24 02:00 UTC NOAA

DIAP 240200Z 23007KT 9999 SCT011 BKN030 25/25 Q1012 NOSIG


Station Type Date Time Source
DIAP Decoded METAR 2021/09/24 02:00 UTC NOAA

Abidjan, Cote d'Ivoire (DIAP) 05-15N 003-56W 8M
Sep 23, 2021 - 10:00 PM EDT / 2021.09.24 0200 UTC
Wind: from the SW (230 degrees) at 8 MPH (7 KT):0
Visibility: greater than 7 mile(s):0
Sky conditions: mostly cloudy
Temperature: 77 F (25 C)
Dew Point: 77 F (25 C)
Relative Humidity: 100%
Pressure (altimeter): 29.88 in. Hg (1012 hPa)
ob: DIAP 240200Z 23007KT 9999 SCT011 BKN030 25/25 Q1012 NOSIG
cycle: 2

Station Type Date Time Source
DIAP TAF 2021/09/23 18:27 UTC NOAA

TAF TAF DIAP 231721Z 2318/2424 23010KT 9999 SCT012 PROB30
TEMPO 2318/2322 TS BKN012 FEW020CB PROB30
TEMPO 2403/2408 4500 RA BKN010 BKN030 PROB40 2414/2418 BKN012 FEW020CB PROB40
TEMPO 2418/2421 TS BKN012 FEW020CB PROB30
TEMPO 2421/2424 4000 TSRA BKN010 FEW020CB BKN030

Example: see airport list